sensor_id;sensor_type;location;lat;lon;timestamp;P1;durP1;ratioP1;P2;durP2;ratioP2
3022;SDS011;1521;53.584;9.938;2023-04-25T00:02:02;15.30;;;6.30;;
3022;SDS011;1521;53.584;9.938;2023-04-25T00:04:28;16.33;;;6.33;;
3022;SDS011;1521;53.584;9.938;2023-04-25T00:06:54;22.37;;;6.00;;
3022;SDS011;1521;53.584;9.938;2023-04-25T00:09:20;15.93;;;6.07;;
3022;SDS011;1521;53.584;9.938;2023-04-25T00:11:46;18.97;;;6.37;;
3022;SDS011;1521;53.584;9.938;2023-04-25T00:14:12;13.30;;;6.33;;
3022;SDS011;1521;53.584;9.938;2023-04-25T00:16:38;18.43;;;6.00;;
3022;SDS011;1521;53.584;9.938;2023-04-25T00:19:04;26.83;;;6.10;;
3022;SDS011;1521;53.584;9.938;2023-04-25T00:21:30;15.60;;;6.37;;
3022;SDS011;1521;53.584;9.938;2023-04-25T00:23:56;37.97;;;7.17;;
3022;SDS011;1521;53.584;9.938;2023-04-25T00:26:22;18.17;;;6.00;;
3022;SDS011;1521;53.584;9.938;2023-04-25T00:28:47;21.33;;;5.80;;
3022;SDS011;1521;53.584;9.938;2023-04-25T00:31:13;34.53;;;7.20;;
3022;SDS011;1521;53.584;9.938;2023-04-25T00:33:39;31.13;;;5.63;;
3022;SDS011;1521;53.584;9.938;2023-04-25T00:36:05;32.63;;;6.10;;
3022;SDS011;1521;53.584;9.938;2023-04-25T00:38:31;30.83;;;5.97;;
3022;SDS011;1521;53.584;9.938;2023-04-25T00:40:57;28.43;;;5.60;;
3022;SDS011;1521;53.584;9.938;2023-04-25T00:43:23;24.70;;;5.17;;
3022;SDS011;1521;53.584;9.938;2023-04-25T00:45:51;31.53;;;6.60;;
3022;SDS011;1521;53.584;9.938;2023-04-25T00:48:18;20.13;;;5.47;;
3022;SDS011;1521;53.584;9.938;2023-04-25T00:50:48;21.67;;;5.50;;
3022;SDS011;1521;53.584;9.938;2023-04-25T00:53:23;32.90;;;6.07;;
3022;SDS011;1521;53.584;9.938;2023-04-25T00:55:50;21.97;;;5.37;;
3022;SDS011;1521;53.584;9.938;2023-04-25T00:58:16;32.57;;;5.60;;
3022;SDS011;1521;53.584;9.938;2023-04-25T01:00:43;27.93;;;7.00;;
3022;SDS011;1521;53.584;9.938;2023-04-25T01:03:11;16.53;;;5.00;;
3022;SDS011;1521;53.584;9.938;2023-04-25T01:05:38;35.93;;;6.93;;
3022;SDS011;1521;53.584;9.938;2023-04-25T01:08:06;24.20;;;4.53;;
3022;SDS011;1521;53.584;9.938;2023-04-25T01:10:32;32.87;;;6.00;;
3022;SDS011;1521;53.584;9.938;2023-04-25T01:12:57;27.47;;;6.30;;
3022;SDS011;1521;53.584;9.938;2023-04-25T01:15:23;33.63;;;6.00;;
3022;SDS011;1521;53.584;9.938;2023-04-25T01:17:49;29.83;;;7.03;;
3022;SDS011;1521;53.584;9.938;2023-04-25T01:20:14;26.37;;;5.80;;
3022;SDS011;1521;53.584;9.938;2023-04-25T01:22:40;26.37;;;5.43;;
3022;SDS011;1521;53.584;9.938;2023-04-25T01:25:07;21.23;;;5.60;;
3022;SDS011;1521;53.584;9.938;2023-04-25T01:27:33;29.13;;;6.17;;
3022;SDS011;1521;53.584;9.938;2023-04-25T01:30:00;17.33;;;4.87;;
3022;SDS011;1521;53.584;9.938;2023-04-25T01:32:26;27.50;;;6.40;;
3022;SDS011;1521;53.584;9.938;2023-04-25T01:34:52;27.73;;;5.97;;
3022;SDS011;1521;53.584;9.938;2023-04-25T01:37:17;23.30;;;5.80;;
3022;SDS011;1521;53.584;9.938;2023-04-25T01:39:43;32.67;;;6.57;;
3022;SDS011;1521;53.584;9.938;2023-04-25T01:42:09;31.27;;;5.70;;
3022;SDS011;1521;53.584;9.938;2023-04-25T01:44:35;20.53;;;5.70;;
3022;SDS011;1521;53.584;9.938;2023-04-25T01:47:00;23.60;;;5.97;;
3022;SDS011;1521;53.584;9.938;2023-04-25T01:49:26;29.37;;;5.67;;
3022;SDS011;1521;53.584;9.938;2023-04-25T01:51:52;25.80;;;5.50;;
3022;SDS011;1521;53.584;9.938;2023-04-25T01:54:17;30.63;;;6.33;;
3022;SDS011;1521;53.584;9.938;2023-04-25T01:56:49;22.80;;;6.47;;
3022;SDS011;1521;53.584;9.938;2023-04-25T01:59:16;25.17;;;5.20;;
3022;SDS011;1521;53.584;9.938;2023-04-25T02:01:43;21.80;;;5.63;;
3022;SDS011;1521;53.584;9.938;2023-04-25T02:04:08;27.30;;;5.27;;
3022;SDS011;1521;53.584;9.938;2023-04-25T02:06:34;32.13;;;6.20;;
3022;SDS011;1521;53.584;9.938;2023-04-25T02:08:59;26.87;;;6.00;;
3022;SDS011;1521;53.584;9.938;2023-04-25T02:11:25;28.57;;;5.90;;
3022;SDS011;1521;53.584;9.938;2023-04-25T02:13:50;28.57;;;5.67;;
3022;SDS011;1521;53.584;9.938;2023-04-25T02:16:17;22.13;;;6.37;;
3022;SDS011;1521;53.584;9.938;2023-04-25T02:18:43;23.13;;;5.33;;
3022;SDS011;1521;53.584;9.938;2023-04-25T02:21:10;28.40;;;6.33;;
3022;SDS011;1521;53.584;9.938;2023-04-25T02:23:36;27.83;;;5.60;;
3022;SDS011;1521;53.584;9.938;2023-04-25T02:26:02;25.37;;;5.33;;
3022;SDS011;1521;53.584;9.938;2023-04-25T02:28:28;24.67;;;5.80;;
3022;SDS011;1521;53.584;9.938;2023-04-25T02:30:53;36.47;;;7.27;;
3022;SDS011;1521;53.584;9.938;2023-04-25T02:33:19;25.07;;;5.23;;
3022;SDS011;1521;53.584;9.938;2023-04-25T02:35:45;22.27;;;5.40;;
3022;SDS011;1521;53.584;9.938;2023-04-25T02:38:11;34.20;;;5.87;;
3022;SDS011;1521;53.584;9.938;2023-04-25T02:40:37;27.90;;;5.50;;
3022;SDS011;1521;53.584;9.938;2023-04-25T02:43:02;26.07;;;5.00;;
3022;SDS011;1521;53.584;9.938;2023-04-25T02:45:28;22.40;;;5.40;;
3022;SDS011;1521;53.584;9.938;2023-04-25T02:47:53;29.73;;;5.50;;
3022;SDS011;1521;53.584;9.938;2023-04-25T02:50:19;18.13;;;5.10;;
3022;SDS011;1521;53.584;9.938;2023-04-25T02:52:45;14.93;;;4.13;;
3022;SDS011;1521;53.584;9.938;2023-04-25T02:55:11;24.40;;;5.63;;
3022;SDS011;1521;53.584;9.938;2023-04-25T02:57:37;25.50;;;5.57;;
3022;SDS011;1521;53.584;9.938;2023-04-25T03:00:03;24.03;;;4.70;;
3022;SDS011;1521;53.584;9.938;2023-04-25T03:02:30;23.40;;;5.93;;
3022;SDS011;1521;53.584;9.938;2023-04-25T03:04:55;18.27;;;4.50;;
3022;SDS011;1521;53.584;9.938;2023-04-25T03:07:21;23.93;;;4.90;;
3022;SDS011;1521;53.584;9.938;2023-04-25T03:09:46;26.10;;;5.80;;
3022;SDS011;1521;53.584;9.938;2023-04-25T03:12:12;30.50;;;5.57;;
3022;SDS011;1521;53.584;9.938;2023-04-25T03:14:38;21.87;;;4.77;;
3022;SDS011;1521;53.584;9.938;2023-04-25T03:17:03;18.93;;;4.10;;
3022;SDS011;1521;53.584;9.938;2023-04-25T03:19:29;28.13;;;6.87;;
3022;SDS011;1521;53.584;9.938;2023-04-25T03:21:55;16.73;;;4.90;;
3022;SDS011;1521;53.584;9.938;2023-04-25T03:24:21;16.50;;;3.83;;
3022;SDS011;1521;53.584;9.938;2023-04-25T03:26:46;17.83;;;5.27;;
3022;SDS011;1521;53.584;9.938;2023-04-25T03:29:12;16.30;;;4.83;;
3022;SDS011;1521;53.584;9.938;2023-04-25T03:31:38;20.27;;;5.37;;
3022;SDS011;1521;53.584;9.938;2023-04-25T03:34:03;20.40;;;4.20;;
3022;SDS011;1521;53.584;9.938;2023-04-25T03:36:29;23.17;;;5.07;;
3022;SDS011;1521;53.584;9.938;2023-04-25T03:38:54;15.77;;;4.20;;
3022;SDS011;1521;53.584;9.938;2023-04-25T03:41:20;21.53;;;4.90;;
3022;SDS011;1521;53.584;9.938;2023-04-25T03:43:46;20.47;;;4.80;;
3022;SDS011;1521;53.584;9.938;2023-04-25T03:46:11;29.70;;;6.23;;
3022;SDS011;1521;53.584;9.938;2023-04-25T03:48:37;16.83;;;4.60;;
3022;SDS011;1521;53.584;9.938;2023-04-25T03:51:02;19.53;;;4.60;;
3022;SDS011;1521;53.584;9.938;2023-04-25T03:53:28;15.27;;;4.00;;
3022;SDS011;1521;53.584;9.938;2023-04-25T03:55:54;13.80;;;4.03;;
3022;SDS011;1521;53.584;9.938;2023-04-25T03:58:19;20.53;;;4.60;;
3022;SDS011;1521;53.584;9.938;2023-04-25T04:00:45;20.83;;;4.27;;
3022;SDS011;1521;53.584;9.938;2023-04-25T04:03:10;26.13;;;4.03;;
3022;SDS011;1521;53.584;9.938;2023-04-25T04:05:36;17.97;;;4.13;;
3022;SDS011;1521;53.584;9.938;2023-04-25T04:08:02;21.30;;;4.33;;
3022;SDS011;1521;53.584;9.938;2023-04-25T04:10:28;33.03;;;4.67;;
3022;SDS011;1521;53.584;9.938;2023-04-25T04:12:53;26.23;;;4.43;;
3022;SDS011;1521;53.584;9.938;2023-04-25T04:15:19;17.40;;;4.57;;
3022;SDS011;1521;53.584;9.938;2023-04-25T04:17:44;21.00;;;4.20;;
3022;SDS011;1521;53.584;9.938;2023-04-25T04:20:11;22.10;;;4.00;;
3022;SDS011;1521;53.584;9.938;2023-04-25T04:22:37;16.53;;;3.80;;
3022;SDS011;1521;53.584;9.938;2023-04-25T04:25:03;22.17;;;4.17;;
3022;SDS011;1521;53.584;9.938;2023-04-25T04:27:30;22.37;;;4.73;;
3022;SDS011;1521;53.584;9.938;2023-04-25T04:29:56;11.70;;;4.00;;
3022;SDS011;1521;53.584;9.938;2023-04-25T04:32:22;10.30;;;3.93;;
3022;SDS011;1521;53.584;9.938;2023-04-25T04:34:48;23.47;;;4.60;;
3022;SDS011;1521;53.584;9.938;2023-04-25T04:37:14;21.57;;;4.00;;
3022;SDS011;1521;53.584;9.938;2023-04-25T04:39:40;14.73;;;4.03;;
3022;SDS011;1521;53.584;9.938;2023-04-25T04:42:05;17.43;;;3.50;;
3022;SDS011;1521;53.584;9.938;2023-04-25T04:44:31;16.60;;;3.70;;
3022;SDS011;1521;53.584;9.938;2023-04-25T04:46:58;19.03;;;4.03;;
3022;SDS011;1521;53.584;9.938;2023-04-25T04:49:23;27.33;;;5.50;;
3022;SDS011;1521;53.584;9.938;2023-04-25T04:51:49;14.60;;;4.30;;
3022;SDS011;1521;53.584;9.938;2023-04-25T04:54:15;13.60;;;3.80;;
3022;SDS011;1521;53.584;9.938;2023-04-25T04:56:40;11.90;;;3.10;;
3022;SDS011;1521;53.584;9.938;2023-04-25T04:59:06;23.53;;;3.97;;
3022;SDS011;1521;53.584;9.938;2023-04-25T05:01:32;17.07;;;3.80;;
3022;SDS011;1521;53.584;9.938;2023-04-25T05:04:00;14.77;;;3.73;;
3022;SDS011;1521;53.584;9.938;2023-04-25T05:06:26;17.80;;;3.80;;
3022;SDS011;1521;53.584;9.938;2023-04-25T05:08:53;18.40;;;3.30;;
3022;SDS011;1521;53.584;9.938;2023-04-25T05:11:19;11.63;;;3.47;;
3022;SDS011;1521;53.584;9.938;2023-04-25T05:13:45;15.73;;;3.33;;
3022;SDS011;1521;53.584;9.938;2023-04-25T05:16:11;19.17;;;4.57;;
3022;SDS011;1521;53.584;9.938;2023-04-25T05:18:38;20.60;;;4.10;;
3022;SDS011;1521;53.584;9.938;2023-04-25T05:21:04;12.07;;;3.70;;
3022;SDS011;1521;53.584;9.938;2023-04-25T05:23:30;17.27;;;3.83;;
3022;SDS011;1521;53.584;9.938;2023-04-25T05:25:57;15.53;;;3.30;;
3022;SDS011;1521;53.584;9.938;2023-04-25T05:28:23;10.40;;;3.13;;
3022;SDS011;1521;53.584;9.938;2023-04-25T05:30:49;14.77;;;3.50;;
3022;SDS011;1521;53.584;9.938;2023-04-25T05:33:14;18.33;;;3.83;;
3022;SDS011;1521;53.584;9.938;2023-04-25T05:35:40;22.13;;;4.40;;
3022;SDS011;1521;53.584;9.938;2023-04-25T05:38:06;19.40;;;4.20;;
3022;SDS011;1521;53.584;9.938;2023-04-25T05:40:32;11.03;;;3.10;;
3022;SDS011;1521;53.584;9.938;2023-04-25T05:42:57;22.00;;;4.20;;
3022;SDS011;1521;53.584;9.938;2023-04-25T05:45:23;20.47;;;4.30;;
3022;SDS011;1521;53.584;9.938;2023-04-25T05:47:48;16.47;;;4.57;;
3022;SDS011;1521;53.584;9.938;2023-04-25T05:50:14;22.60;;;4.47;;
3022;SDS011;1521;53.584;9.938;2023-04-25T05:52:40;15.07;;;4.20;;
3022;SDS011;1521;53.584;9.938;2023-04-25T05:55:05;17.80;;;3.30;;
3022;SDS011;1521;53.584;9.938;2023-04-25T05:57:31;16.77;;;4.50;;
3022;SDS011;1521;53.584;9.938;2023-04-25T05:59:57;13.57;;;3.33;;
3022;SDS011;1521;53.584;9.938;2023-04-25T06:02:22;22.70;;;3.63;;
3022;SDS011;1521;53.584;9.938;2023-04-25T06:04:49;12.47;;;4.10;;
3022;SDS011;1521;53.584;9.938;2023-04-25T06:07:16;8.80;;;3.20;;
3022;SDS011;1521;53.584;9.938;2023-04-25T06:09:42;13.53;;;3.57;;
3022;SDS011;1521;53.584;9.938;2023-04-25T06:12:08;23.83;;;3.53;;
3022;SDS011;1521;53.584;9.938;2023-04-25T06:14:33;15.93;;;4.57;;
3022;SDS011;1521;53.584;9.938;2023-04-25T06:16:59;14.60;;;4.77;;
3022;SDS011;1521;53.584;9.938;2023-04-25T06:19:31;7.73;;;3.10;;
3022;SDS011;1521;53.584;9.938;2023-04-25T06:22:07;25.50;;;3.67;;
3022;SDS011;1521;53.584;9.938;2023-04-25T06:24:33;11.20;;;3.03;;
3022;SDS011;1521;53.584;9.938;2023-04-25T06:26:59;14.87;;;3.37;;
3022;SDS011;1521;53.584;9.938;2023-04-25T06:29:26;17.27;;;5.33;;
3022;SDS011;1521;53.584;9.938;2023-04-25T06:31:51;18.10;;;3.30;;
3022;SDS011;1521;53.584;9.938;2023-04-25T06:34:17;10.53;;;3.33;;
3022;SDS011;1521;53.584;9.938;2023-04-25T06:36:42;21.00;;;3.50;;
3022;SDS011;1521;53.584;9.938;2023-04-25T06:39:09;12.23;;;3.50;;
3022;SDS011;1521;53.584;9.938;2023-04-25T06:41:35;17.33;;;3.20;;
3022;SDS011;1521;53.584;9.938;2023-04-25T06:44:01;12.03;;;3.33;;
3022;SDS011;1521;53.584;9.938;2023-04-25T06:46:26;12.90;;;2.97;;
3022;SDS011;1521;53.584;9.938;2023-04-25T06:48:52;20.20;;;3.90;;
3022;SDS011;1521;53.584;9.938;2023-04-25T06:51:18;14.47;;;3.70;;
3022;SDS011;1521;53.584;9.938;2023-04-25T06:53:43;17.73;;;3.40;;
3022;SDS011;1521;53.584;9.938;2023-04-25T06:56:09;10.80;;;3.40;;
3022;SDS011;1521;53.584;9.938;2023-04-25T06:58:35;14.80;;;3.17;;
3022;SDS011;1521;53.584;9.938;2023-04-25T07:01:00;17.43;;;3.23;;
3022;SDS011;1521;53.584;9.938;2023-04-25T07:03:26;16.40;;;3.83;;
3022;SDS011;1521;53.584;9.938;2023-04-25T07:05:51;14.10;;;3.07;;
3022;SDS011;1521;53.584;9.938;2023-04-25T07:08:17;8.33;;;2.80;;
3022;SDS011;1521;53.584;9.938;2023-04-25T07:10:42;24.80;;;4.00;;
3022;SDS011;1521;53.584;9.938;2023-04-25T07:13:08;8.80;;;2.60;;
3022;SDS011;1521;53.584;9.938;2023-04-25T07:15:34;13.20;;;2.87;;
3022;SDS011;1521;53.584;9.938;2023-04-25T07:18:00;10.33;;;3.83;;
3022;SDS011;1521;53.584;9.938;2023-04-25T07:20:25;15.53;;;2.90;;
3022;SDS011;1521;53.584;9.938;2023-04-25T07:22:52;19.40;;;3.20;;
3022;SDS011;1521;53.584;9.938;2023-04-25T07:25:18;8.63;;;2.83;;
3022;SDS011;1521;53.584;9.938;2023-04-25T07:27:44;10.57;;;2.50;;
3022;SDS011;1521;53.584;9.938;2023-04-25T07:30:09;16.80;;;2.77;;
3022;SDS011;1521;53.584;9.938;2023-04-25T07:32:35;12.73;;;2.47;;
3022;SDS011;1521;53.584;9.938;2023-04-25T07:35:01;14.57;;;3.17;;
3022;SDS011;1521;53.584;9.938;2023-04-25T07:37:28;17.40;;;2.90;;
3022;SDS011;1521;53.584;9.938;2023-04-25T07:39:53;12.63;;;3.30;;
3022;SDS011;1521;53.584;9.938;2023-04-25T07:42:19;13.63;;;2.30;;
3022;SDS011;1521;53.584;9.938;2023-04-25T07:44:46;13.40;;;3.17;;
3022;SDS011;1521;53.584;9.938;2023-04-25T07:47:12;22.07;;;3.53;;
3022;SDS011;1521;53.584;9.938;2023-04-25T07:49:38;14.03;;;2.97;;
3022;SDS011;1521;53.584;9.938;2023-04-25T07:52:04;15.10;;;3.20;;
3022;SDS011;1521;53.584;9.938;2023-04-25T07:54:31;11.50;;;2.43;;
3022;SDS011;1521;53.584;9.938;2023-04-25T07:56:57;8.87;;;2.60;;
3022;SDS011;1521;53.584;9.938;2023-04-25T07:59:23;9.77;;;2.87;;
3022;SDS011;1521;53.584;9.938;2023-04-25T08:01:48;19.40;;;3.10;;
3022;SDS011;1521;53.584;9.938;2023-04-25T08:04:14;11.07;;;2.60;;
3022;SDS011;1521;53.584;9.938;2023-04-25T08:06:40;9.73;;;2.70;;
3022;SDS011;1521;53.584;9.938;2023-04-25T08:09:05;6.90;;;2.30;;
3022;SDS011;1521;53.584;9.938;2023-04-25T08:11:31;6.90;;;2.50;;
3022;SDS011;1521;53.584;9.938;2023-04-25T08:13:57;9.97;;;2.80;;
3022;SDS011;1521;53.584;9.938;2023-04-25T08:16:23;12.80;;;2.67;;
3022;SDS011;1521;53.584;9.938;2023-04-25T08:18:49;19.17;;;3.07;;
3022;SDS011;1521;53.584;9.938;2023-04-25T08:21:15;9.87;;;2.10;;
3022;SDS011;1521;53.584;9.938;2023-04-25T08:23:40;4.87;;;2.30;;
3022;SDS011;1521;53.584;9.938;2023-04-25T08:26:06;13.67;;;2.60;;
3022;SDS011;1521;53.584;9.938;2023-04-25T08:28:32;9.50;;;2.50;;
3022;SDS011;1521;53.584;9.938;2023-04-25T08:30:57;10.23;;;2.20;;
3022;SDS011;1521;53.584;9.938;2023-04-25T08:33:23;10.83;;;2.43;;
3022;SDS011;1521;53.584;9.938;2023-04-25T08:35:49;16.43;;;2.90;;
3022;SDS011;1521;53.584;9.938;2023-04-25T08:38:14;13.40;;;2.37;;
3022;SDS011;1521;53.584;9.938;2023-04-25T08:40:40;12.77;;;2.70;;
3022;SDS011;1521;53.584;9.938;2023-04-25T08:43:07;10.30;;;2.27;;
3022;SDS011;1521;53.584;9.938;2023-04-25T08:45:38;10.23;;;2.60;;
3022;SDS011;1521;53.584;9.938;2023-04-25T08:48:11;9.23;;;2.73;;
3022;SDS011;1521;53.584;9.938;2023-04-25T08:50:50;10.13;;;2.83;;
3022;SDS011;1521;53.584;9.938;2023-04-25T08:53:35;7.90;;;2.43;;
3022;SDS011;1521;53.584;9.938;2023-04-25T08:56:01;9.80;;;2.00;;
3022;SDS011;1521;53.584;9.938;2023-04-25T08:58:27;12.23;;;2.40;;
3022;SDS011;1521;53.584;9.938;2023-04-25T09:00:53;7.97;;;2.17;;
3022;SDS011;1521;53.584;9.938;2023-04-25T09:03:19;9.97;;;2.50;;
3022;SDS011;1521;53.584;9.938;2023-04-25T09:05:44;7.73;;;2.63;;
3022;SDS011;1521;53.584;9.938;2023-04-25T09:08:10;7.60;;;1.87;;
3022;SDS011;1521;53.584;9.938;2023-04-25T09:10:36;11.30;;;3.23;;
3022;SDS011;1521;53.584;9.938;2023-04-25T09:13:09;5.23;;;1.87;;
3022;SDS011;1521;53.584;9.938;2023-04-25T09:15:48;12.77;;;2.13;;
3022;SDS011;1521;53.584;9.938;2023-04-25T09:18:24;9.02;;;1.90;;
3022;SDS011;1521;53.584;9.938;2023-04-25T09:20:55;11.90;;;2.33;;
3022;SDS011;1521;53.584;9.938;2023-04-25T09:23:23;6.87;;;1.90;;
3022;SDS011;1521;53.584;9.938;2023-04-25T09:25:49;14.57;;;2.93;;
3022;SDS011;1521;53.584;9.938;2023-04-25T09:28:16;10.33;;;2.00;;
3022;SDS011;1521;53.584;9.938;2023-04-25T09:30:47;13.37;;;2.57;;
3022;SDS011;1521;53.584;9.938;2023-04-25T09:33:13;9.83;;;1.80;;
3022;SDS011;1521;53.584;9.938;2023-04-25T09:35:40;8.83;;;2.10;;
3022;SDS011;1521;53.584;9.938;2023-04-25T09:38:10;18.57;;;2.20;;
3022;SDS011;1521;53.584;9.938;2023-04-25T09:40:40;12.88;;;2.20;;
3022;SDS011;1521;53.584;9.938;2023-04-25T09:43:18;16.00;;;3.50;;
3022;SDS011;1521;53.584;9.938;2023-04-25T09:45:44;17.33;;;4.63;;
3022;SDS011;1521;53.584;9.938;2023-04-25T09:48:14;10.60;;;1.90;;
3022;SDS011;1521;53.584;9.938;2023-04-25T09:51:03;7.83;;;2.60;;
3022;SDS011;1521;53.584;9.938;2023-04-25T09:53:30;7.40;;;2.10;;
3022;SDS011;1521;53.584;9.938;2023-04-25T09:55:57;8.67;;;2.40;;
3022;SDS011;1521;53.584;9.938;2023-04-25T09:58:25;3.90;;;1.50;;
3022;SDS011;1521;53.584;9.938;2023-04-25T10:00:55;10.27;;;2.03;;
3022;SDS011;1521;53.584;9.938;2023-04-25T10:03:25;12.93;;;2.40;;
3022;SDS011;1521;53.584;9.938;2023-04-25T10:05:51;7.67;;;2.67;;
3022;SDS011;1521;53.584;9.938;2023-04-25T10:08:18;9.43;;;2.20;;
3022;SDS011;1521;53.584;9.938;2023-04-25T10:10:45;6.87;;;2.10;;
3022;SDS011;1521;53.584;9.938;2023-04-25T10:13:11;12.67;;;2.50;;
3022;SDS011;1521;53.584;9.938;2023-04-25T10:15:39;5.77;;;1.70;;
3022;SDS011;1521;53.584;9.938;2023-04-25T10:18:06;8.15;;;2.00;;
3022;SDS011;1521;53.584;9.938;2023-04-25T10:20:32;8.00;;;1.97;;
3022;SDS011;1521;53.584;9.938;2023-04-25T10:22:59;10.93;;;2.03;;
3022;SDS011;1521;53.584;9.938;2023-04-25T10:25:33;8.40;;;2.00;;
3022;SDS011;1521;53.584;9.938;2023-04-25T10:27:59;7.70;;;1.43;;
3022;SDS011;1521;53.584;9.938;2023-04-25T10:30:27;5.93;;;1.80;;
3022;SDS011;1521;53.584;9.938;2023-04-25T10:32:52;7.53;;;2.47;;
3022;SDS011;1521;53.584;9.938;2023-04-25T10:35:26;10.50;;;1.80;;
3022;SDS011;1521;53.584;9.938;2023-04-25T10:40:25;12.47;;;1.90;;
3022;SDS011;1521;53.584;9.938;2023-04-25T10:42:52;14.97;;;2.23;;
3022;SDS011;1521;53.584;9.938;2023-04-25T10:45:21;9.33;;;2.10;;
3022;SDS011;1521;53.584;9.938;2023-04-25T10:47:47;9.23;;;2.10;;
3022;SDS011;1521;53.584;9.938;2023-04-25T10:50:15;11.27;;;2.27;;
3022;SDS011;1521;53.584;9.938;2023-04-25T10:52:41;8.20;;;1.93;;
3022;SDS011;1521;53.584;9.938;2023-04-25T10:55:08;9.03;;;2.27;;
3022;SDS011;1521;53.584;9.938;2023-04-25T11:00:18;7.60;;;2.00;;
3022;SDS011;1521;53.584;9.938;2023-04-25T11:02:53;11.40;;;2.30;;
3022;SDS011;1521;53.584;9.938;2023-04-25T11:05:31;7.50;;;2.40;;
3022;SDS011;1521;53.584;9.938;2023-04-25T11:07:58;7.30;;;1.63;;
3022;SDS011;1521;53.584;9.938;2023-04-25T11:10:28;9.37;;;1.90;;
3022;SDS011;1521;53.584;9.938;2023-04-25T11:12:55;7.30;;;1.77;;
3022;SDS011;1521;53.584;9.938;2023-04-25T11:15:21;13.77;;;2.00;;
3022;SDS011;1521;53.584;9.938;2023-04-25T11:17:47;6.63;;;1.93;;
3022;SDS011;1521;53.584;9.938;2023-04-25T11:20:13;7.97;;;2.00;;
3022;SDS011;1521;53.584;9.938;2023-04-25T11:22:40;13.03;;;2.20;;
3022;SDS011;1521;53.584;9.938;2023-04-25T11:25:09;9.60;;;2.00;;
3022;SDS011;1521;53.584;9.938;2023-04-25T11:28:09;13.27;;;1.70;;
3022;SDS011;1521;53.584;9.938;2023-04-25T11:30:28;7.87;;;1.60;;
3022;SDS011;1521;53.584;9.938;2023-04-25T11:32:55;6.50;;;1.50;;
3022;SDS011;1521;53.584;9.938;2023-04-25T11:35:21;9.40;;;1.70;;
3022;SDS011;1521;53.584;9.938;2023-04-25T11:37:50;7.67;;;1.90;;
3022;SDS011;1521;53.584;9.938;2023-04-25T11:40:16;6.10;;;1.77;;
3022;SDS011;1521;53.584;9.938;2023-04-25T11:42:46;5.77;;;1.67;;
3022;SDS011;1521;53.584;9.938;2023-04-25T11:45:13;9.43;;;1.63;;
3022;SDS011;1521;53.584;9.938;2023-04-25T11:47:40;2.80;;;1.10;;
3022;SDS011;1521;53.584;9.938;2023-04-25T11:50:06;3.93;;;1.60;;
3022;SDS011;1521;53.584;9.938;2023-04-25T11:55:03;5.63;;;1.20;;
3022;SDS011;1521;53.584;9.938;2023-04-25T11:57:31;3.77;;;1.70;;
3022;SDS011;1521;53.584;9.938;2023-04-25T12:00:05;4.40;;;1.43;;
3022;SDS011;1521;53.584;9.938;2023-04-25T12:02:37;3.40;;;1.20;;
3022;SDS011;1521;53.584;9.938;2023-04-25T12:05:10;4.87;;;1.30;;
3022;SDS011;1521;53.584;9.938;2023-04-25T12:07:37;5.13;;;1.67;;
3022;SDS011;1521;53.584;9.938;2023-04-25T12:10:09;7.87;;;2.13;;
3022;SDS011;1521;53.584;9.938;2023-04-25T12:12:37;4.13;;;1.37;;
3022;SDS011;1521;53.584;9.938;2023-04-25T12:15:09;4.17;;;1.20;;
3022;SDS011;1521;53.584;9.938;2023-04-25T12:17:36;5.40;;;1.27;;
3022;SDS011;1521;53.584;9.938;2023-04-25T12:20:09;8.70;;;1.60;;
3022;SDS011;1521;53.584;9.938;2023-04-25T12:22:37;4.20;;;1.53;;
3022;SDS011;1521;53.584;9.938;2023-04-25T12:25:05;3.87;;;1.60;;
3022;SDS011;1521;53.584;9.938;2023-04-25T12:27:32;6.37;;;1.53;;
3022;SDS011;1521;53.584;9.938;2023-04-25T12:29:58;10.33;;;1.50;;
3022;SDS011;1521;53.584;9.938;2023-04-25T12:32:24;4.87;;;1.47;;
3022;SDS011;1521;53.584;9.938;2023-04-25T12:34:51;5.10;;;1.50;;
3022;SDS011;1521;53.584;9.938;2023-04-25T12:37:16;6.93;;;1.50;;
3022;SDS011;1521;53.584;9.938;2023-04-25T12:39:42;6.37;;;1.60;;
3022;SDS011;1521;53.584;9.938;2023-04-25T12:42:08;7.53;;;1.67;;
3022;SDS011;1521;53.584;9.938;2023-04-25T12:44:36;9.20;;;2.07;;
3022;SDS011;1521;53.584;9.938;2023-04-25T12:47:02;7.43;;;1.63;;
3022;SDS011;1521;53.584;9.938;2023-04-25T12:49:28;7.50;;;2.03;;
3022;SDS011;1521;53.584;9.938;2023-04-25T12:51:53;12.47;;;2.07;;
3022;SDS011;1521;53.584;9.938;2023-04-25T12:54:19;10.03;;;2.00;;
3022;SDS011;1521;53.584;9.938;2023-04-25T12:56:45;5.87;;;1.67;;
3022;SDS011;1521;53.584;9.938;2023-04-25T12:59:11;7.67;;;2.20;;
3022;SDS011;1521;53.584;9.938;2023-04-25T13:01:36;7.87;;;1.67;;
3022;SDS011;1521;53.584;9.938;2023-04-25T13:04:02;4.30;;;1.30;;
3022;SDS011;1521;53.584;9.938;2023-04-25T13:06:28;4.93;;;1.30;;
3022;SDS011;1521;53.584;9.938;2023-04-25T13:08:55;3.33;;;1.50;;
3022;SDS011;1521;53.584;9.938;2023-04-25T13:11:21;6.73;;;1.90;;
3022;SDS011;1521;53.584;9.938;2023-04-25T13:13:46;10.67;;;2.03;;
3022;SDS011;1521;53.584;9.938;2023-04-25T13:16:12;14.20;;;3.00;;
3022;SDS011;1521;53.584;9.938;2023-04-25T13:18:41;11.43;;;1.73;;
3022;SDS011;1521;53.584;9.938;2023-04-25T13:21:07;4.88;;;1.60;;
3022;SDS011;1521;53.584;9.938;2023-04-25T13:23:35;6.77;;;1.77;;
3022;SDS011;1521;53.584;9.938;2023-04-25T13:26:01;5.30;;;1.77;;
3022;SDS011;1521;53.584;9.938;2023-04-25T13:28:27;7.97;;;1.97;;
3022;SDS011;1521;53.584;9.938;2023-04-25T13:30:53;8.90;;;2.00;;
3022;SDS011;1521;53.584;9.938;2023-04-25T13:33:19;4.20;;;1.80;;
3022;SDS011;1521;53.584;9.938;2023-04-25T13:35:46;10.30;;;2.20;;
3022;SDS011;1521;53.584;9.938;2023-04-25T13:38:18;6.93;;;1.93;;
3022;SDS011;1521;53.584;9.938;2023-04-25T13:40:48;12.77;;;1.83;;
3022;SDS011;1521;53.584;9.938;2023-04-25T13:43:13;6.93;;;1.93;;
3022;SDS011;1521;53.584;9.938;2023-04-25T13:45:39;8.57;;;1.80;;
3022;SDS011;1521;53.584;9.938;2023-04-25T13:48:05;10.30;;;2.30;;
3022;SDS011;1521;53.584;9.938;2023-04-25T13:50:31;7.57;;;2.20;;
3022;SDS011;1521;53.584;9.938;2023-04-25T13:52:57;6.77;;;1.70;;
3022;SDS011;1521;53.584;9.938;2023-04-25T13:55:22;9.80;;;2.20;;
3022;SDS011;1521;53.584;9.938;2023-04-25T13:57:48;8.60;;;2.37;;
3022;SDS011;1521;53.584;9.938;2023-04-25T14:00:13;9.53;;;2.40;;
3022;SDS011;1521;53.584;9.938;2023-04-25T14:02:40;9.27;;;2.10;;
3022;SDS011;1521;53.584;9.938;2023-04-25T14:05:05;14.43;;;2.07;;
3022;SDS011;1521;53.584;9.938;2023-04-25T14:07:32;7.37;;;2.20;;
3022;SDS011;1521;53.584;9.938;2023-04-25T14:09:59;12.80;;;2.40;;
3022;SDS011;1521;53.584;9.938;2023-04-25T14:12:25;11.32;;;2.10;;
3022;SDS011;1521;53.584;9.938;2023-04-25T14:14:51;9.30;;;2.30;;
3022;SDS011;1521;53.584;9.938;2023-04-25T14:17:18;4.50;;;1.80;;
3022;SDS011;1521;53.584;9.938;2023-04-25T14:19:44;12.77;;;2.40;;
3022;SDS011;1521;53.584;9.938;2023-04-25T14:22:10;8.00;;;2.00;;
3022;SDS011;1521;53.584;9.938;2023-04-25T14:24:37;10.53;;;2.33;;
3022;SDS011;1521;53.584;9.938;2023-04-25T14:27:03;9.90;;;2.00;;
3022;SDS011;1521;53.584;9.938;2023-04-25T14:29:29;8.97;;;2.53;;
3022;SDS011;1521;53.584;9.938;2023-04-25T14:31:54;7.63;;;1.80;;
3022;SDS011;1521;53.584;9.938;2023-04-25T14:34:22;10.17;;;2.43;;
3022;SDS011;1521;53.584;9.938;2023-04-25T14:36:48;6.00;;;1.87;;
3022;SDS011;1521;53.584;9.938;2023-04-25T14:39:14;6.00;;;1.70;;
3022;SDS011;1521;53.584;9.938;2023-04-25T14:41:39;6.77;;;1.70;;
3022;SDS011;1521;53.584;9.938;2023-04-25T14:44:05;6.20;;;1.60;;
3022;SDS011;1521;53.584;9.938;2023-04-25T14:46:31;4.13;;;1.43;;
3022;SDS011;1521;53.584;9.938;2023-04-25T14:48:56;14.87;;;1.87;;
3022;SDS011;1521;53.584;9.938;2023-04-25T14:51:22;4.10;;;1.60;;
3022;SDS011;1521;53.584;9.938;2023-04-25T14:53:48;8.73;;;1.93;;
3022;SDS011;1521;53.584;9.938;2023-04-25T14:56:13;7.90;;;2.20;;
3022;SDS011;1521;53.584;9.938;2023-04-25T14:58:39;7.90;;;1.67;;
3022;SDS011;1521;53.584;9.938;2023-04-25T15:01:05;8.93;;;1.50;;
3022;SDS011;1521;53.584;9.938;2023-04-25T15:03:31;5.93;;;1.53;;
3022;SDS011;1521;53.584;9.938;2023-04-25T15:05:57;10.87;;;2.40;;
3022;SDS011;1521;53.584;9.938;2023-04-25T15:08:23;11.00;;;1.77;;
3022;SDS011;1521;53.584;9.938;2023-04-25T15:10:49;9.23;;;2.30;;